sensor_id;sensor_type;location;lat;lon;timestamp;pressure;altitude;pressure_sealevel;temperature;humidity
14885;BME280;7534;50.762;7.000;2022-11-15T00:00:52;148948.97;;;10.59;100.00
14885;BME280;7534;50.762;7.000;2022-11-15T00:03:23;148929.34;;;10.51;100.00
14885;BME280;7534;50.762;7.000;2022-11-15T00:05:50;148894.03;;;10.38;100.00
14885;BME280;7534;50.762;7.000;2022-11-15T00:08:16;148918.84;;;10.47;100.00
14885;BME280;7534;50.762;7.000;2022-11-15T00:10:42;148883.53;;;10.33;100.00
14885;BME280;7534;50.762;7.000;2022-11-15T00:13:12;148912.34;;;10.45;100.00
14885;BME280;7534;50.762;7.000;2022-11-15T00:15:40;148908.41;;;10.43;100.00
14885;BME280;7534;50.762;7.000;2022-11-15T00:18:12;148904.47;;;10.42;100.00
14885;BME280;7534;50.762;7.000;2022-11-15T00:20:38;148908.41;;;10.43;100.00
14885;BME280;7534;50.762;7.000;2022-11-15T00:23:04;148903.16;;;10.41;100.00
14885;BME280;7534;50.762;7.000;2022-11-15T00:25:31;148891.41;;;10.37;100.00
14885;BME280;7534;50.762;7.000;2022-11-15T00:27:58;148903.16;;;10.41;100.00
14885;BME280;7534;50.762;7.000;2022-11-15T00:30:25;148904.47;;;10.42;100.00
14885;BME280;7534;50.762;7.000;2022-11-15T00:32:51;148879.59;;;10.32;100.00
14885;BME280;7534;50.762;7.000;2022-11-15T00:35:18;148878.28;;;10.31;100.00
14885;BME280;7534;50.762;7.000;2022-11-15T00:37:44;148886.16;;;10.35;100.00
14885;BME280;7534;50.762;7.000;2022-11-15T00:40:10;148890.09;;;10.36;100.00
14885;BME280;7534;50.762;7.000;2022-11-15T00:42:38;148895.28;;;10.38;100.00
14885;BME280;7534;50.762;7.000;2022-11-15T00:45:04;148861.28;;;10.25;100.00
14885;BME280;7534;50.762;7.000;2022-11-15T00:47:30;148850.84;;;10.21;100.00
14885;BME280;7534;50.762;7.000;2022-11-15T00:49:56;148878.28;;;10.31;100.00
14885;BME280;7534;50.762;7.000;2022-11-15T00:52:22;148842.97;;;10.18;100.00
14885;BME280;7534;50.762;7.000;2022-11-15T00:54:47;148833.75;;;10.14;100.00
14885;BME280;7534;50.762;7.000;2022-11-15T00:57:13;148839.00;;;10.16;100.00
14885;BME280;7534;50.762;7.000;2022-11-15T00:59:38;148849.53;;;10.20;100.00
14885;BME280;7534;50.762;7.000;2022-11-15T01:02:04;148862.59;;;10.25;100.00
14885;BME280;7534;50.762;7.000;2022-11-15T01:04:30;148839.00;;;10.16;100.00
14885;BME280;7534;50.762;7.000;2022-11-15T01:06:55;148839.00;;;10.16;100.00
14885;BME280;7534;50.762;7.000;2022-11-15T01:09:21;148865.22;;;10.26;100.00
14885;BME280;7534;50.762;7.000;2022-11-15T01:11:47;148858.66;;;10.24;100.00
14885;BME280;7534;50.762;7.000;2022-11-15T01:14:13;148854.72;;;10.22;100.00
14885;BME280;7534;50.762;7.000;2022-11-15T01:16:39;148886.16;;;10.35;100.00
14885;BME280;7534;50.762;7.000;2022-11-15T01:19:05;148911.03;;;10.44;100.00
14885;BME280;7534;50.762;7.000;2022-11-15T01:21:30;148916.22;;;10.46;100.00
14885;BME280;7534;50.762;7.000;2022-11-15T01:23:57;148903.16;;;10.41;100.00
14885;BME280;7534;50.762;7.000;2022-11-15T01:26:24;148945.03;;;10.57;100.00
14885;BME280;7534;50.762;7.000;2022-11-15T01:28:50;148946.34;;;10.58;100.00
14885;BME280;7534;50.762;7.000;2022-11-15T01:31:20;148958.09;;;10.62;100.00
14885;BME280;7534;50.762;7.000;2022-11-15T01:33:48;148980.34;;;10.71;100.00
14885;BME280;7534;50.762;7.000;2022-11-15T01:36:19;149001.28;;;10.79;100.00
14885;BME280;7534;50.762;7.000;2022-11-15T01:38:54;149027.47;;;10.89;100.00
14885;BME280;7534;50.762;7.000;2022-11-15T01:41:30;149048.44;;;10.97;100.00
14885;BME280;7534;50.762;7.000;2022-11-15T01:47:15;149049.75;;;10.98;100.00
14885;BME280;7534;50.762;7.000;2022-11-15T01:50:06;149043.19;;;10.95;100.00
14885;BME280;7534;50.762;7.000;2022-11-15T01:52:35;149072.00;;;11.06;100.00
14885;BME280;7534;50.762;7.000;2022-11-15T01:55:13;149078.56;;;11.09;100.00
14885;BME280;7534;50.762;7.000;2022-11-15T01:57:44;149057.63;;;11.01;100.00
14885;BME280;7534;50.762;7.000;2022-11-15T02:00:13;149060.25;;;11.02;100.00
14885;BME280;7534;50.762;7.000;2022-11-15T02:02:39;149078.56;;;11.09;100.00
14885;BME280;7534;50.762;7.000;2022-11-15T02:05:12;149100.81;;;11.18;100.00
14885;BME280;7534;50.762;7.000;2022-11-15T02:07:38;149120.47;;;11.25;100.00
14885;BME280;7534;50.762;7.000;2022-11-15T02:10:12;149149.25;;;11.36;100.00
14885;BME280;7534;50.762;7.000;2022-11-15T02:12:38;149163.69;;;11.42;100.00
14885;BME280;7534;50.762;7.000;2022-11-15T02:15:07;149178.06;;;11.47;100.00
14885;BME280;7534;50.762;7.000;2022-11-15T02:17:50;149191.16;;;11.53;100.00
14885;BME280;7534;50.762;7.000;2022-11-15T02:20:44;149213.41;;;11.61;100.00
14885;BME280;7534;50.762;7.000;2022-11-15T02:27:14;149258.00;;;11.78;100.00
14885;BME280;7534;50.762;7.000;2022-11-15T02:32:45;149265.91;;;11.81;100.00
14885;BME280;7534;50.762;7.000;2022-11-15T02:36:01;149294.69;;;11.93;100.00
14885;BME280;7534;50.762;7.000;2022-11-15T02:41:52;149286.84;;;11.90;100.00
14885;BME280;7534;50.762;7.000;2022-11-15T02:44:27;149276.34;;;11.85;100.00
14885;BME280;7534;50.762;7.000;2022-11-15T02:47:05;149290.78;;;11.91;100.00
14885;BME280;7534;50.762;7.000;2022-11-15T02:50:01;149309.13;;;11.98;100.00
14885;BME280;7534;50.762;7.000;2022-11-15T02:52:29;149310.44;;;11.99;100.00
14885;BME280;7534;50.762;7.000;2022-11-15T02:55:00;149275.03;;;11.85;100.00
14885;BME280;7534;50.762;7.000;2022-11-15T03:01:34;149267.22;;;11.82;100.00
14885;BME280;7534;50.762;7.000;2022-11-15T03:07:30;149271.16;;;11.83;100.00
14885;BME280;7534;50.762;7.000;2022-11-15T03:10:25;149280.28;;;11.87;100.00
14885;BME280;7534;50.762;7.000;2022-11-15T03:13:02;149293.38;;;11.92;100.00
14885;BME280;7534;50.762;7.000;2022-11-15T03:15:44;149323.53;;;12.04;100.00
14885;BME280;7534;50.762;7.000;2022-11-15T03:18:22;149336.63;;;12.09;100.00
14885;BME280;7534;50.762;7.000;2022-11-15T03:20:53;149330.09;;;12.06;100.00
14885;BME280;7534;50.762;7.000;2022-11-15T03:23:20;149334.03;;;12.08;100.00
14885;BME280;7534;50.762;7.000;2022-11-15T03:25:50;149349.75;;;12.14;100.00
14885;BME280;7534;50.762;7.000;2022-11-15T03:28:25;149336.63;;;12.09;100.00
14885;BME280;7534;50.762;7.000;2022-11-15T03:30:55;149351.06;;;12.14;100.00
14885;BME280;7534;50.762;7.000;2022-11-15T03:33:22;149357.59;;;12.17;100.00
14885;BME280;7534;50.762;7.000;2022-11-15T03:35:49;149385.13;;;12.28;100.00
14885;BME280;7534;50.762;7.000;2022-11-15T03:38:25;149410.03;;;12.37;100.00
14885;BME280;7534;50.762;7.000;2022-11-15T03:41:01;149412.66;;;12.38;100.00
14885;BME280;7534;50.762;7.000;2022-11-15T03:43:53;149433.63;;;12.46;100.00
14885;BME280;7534;50.762;7.000;2022-11-15T03:46:34;149441.47;;;12.49;100.00
14885;BME280;7534;50.762;7.000;2022-11-15T03:49:12;149437.56;;;12.48;100.00
14885;BME280;7534;50.762;7.000;2022-11-15T03:51:39;149417.91;;;12.40;100.00
14885;BME280;7534;50.762;7.000;2022-11-15T03:54:06;149424.44;;;12.43;100.00
14885;BME280;7534;50.762;7.000;2022-11-15T03:56:31;149429.69;;;12.45;100.00
14885;BME280;7534;50.762;7.000;2022-11-15T03:58:57;149433.63;;;12.46;100.00
14885;BME280;7534;50.762;7.000;2022-11-15T04:01:23;149444.09;;;12.50;100.00
14885;BME280;7534;50.762;7.000;2022-11-15T04:03:49;149454.59;;;12.54;100.00
14885;BME280;7534;50.762;7.000;2022-11-15T04:06:15;149429.69;;;12.45;100.00
14885;BME280;7534;50.762;7.000;2022-11-15T04:08:41;149381.19;;;12.26;100.00
14885;BME280;7534;50.762;7.000;2022-11-15T04:11:06;149381.19;;;12.26;100.00
14885;BME280;7534;50.762;7.000;2022-11-15T04:13:32;149393.00;;;12.31;100.00
14885;BME280;7534;50.762;7.000;2022-11-15T04:15:58;149398.22;;;12.33;100.00
14885;BME280;7534;50.762;7.000;2022-11-15T04:18:23;149382.50;;;12.27;100.00
14885;BME280;7534;50.762;7.000;2022-11-15T04:20:50;149374.66;;;12.23;100.00
14885;BME280;7534;50.762;7.000;2022-11-15T04:23:34;149360.22;;;12.18;100.00
14885;BME280;7534;50.762;7.000;2022-11-15T04:26:22;149349.75;;;12.14;100.00
14885;BME280;7534;50.762;7.000;2022-11-15T04:28:48;149357.59;;;12.17;100.00
14885;BME280;7534;50.762;7.000;2022-11-15T04:31:37;149355.00;;;12.16;100.00
14885;BME280;7534;50.762;7.000;2022-11-15T04:34:03;149347.13;;;12.13;100.00
14885;BME280;7534;50.762;7.000;2022-11-15T04:36:28;149299.94;;;11.95;100.00
14885;BME280;7534;50.762;7.000;2022-11-15T04:39:12;149276.34;;;11.85;100.00
14885;BME280;7534;50.762;7.000;2022-11-15T04:41:38;149252.75;;;11.76;100.00
14885;BME280;7534;50.762;7.000;2022-11-15T04:44:04;149222.63;;;11.65;100.00
14885;BME280;7534;50.762;7.000;2022-11-15T04:46:29;149205.59;;;11.58;100.00
14885;BME280;7534;50.762;7.000;2022-11-15T04:48:55;149174.13;;;11.46;100.00
14885;BME280;7534;50.762;7.000;2022-11-15T04:51:21;149175.44;;;11.46;100.00
14885;BME280;7534;50.762;7.000;2022-11-15T04:53:46;149182.00;;;11.49;100.00
14885;BME280;7534;50.762;7.000;2022-11-15T04:56:12;149187.25;;;11.51;100.00
14885;BME280;7534;50.762;7.000;2022-11-15T04:58:38;149168.88;;;11.44;100.00
14885;BME280;7534;50.762;7.000;2022-11-15T05:01:12;149137.47;;;11.32;100.00
14885;BME280;7534;50.762;7.000;2022-11-15T05:03:40;149121.78;;;11.26;100.00
14885;BME280;7534;50.762;7.000;2022-11-15T05:06:26;149150.56;;;11.37;100.00
14885;BME280;7534;50.762;7.000;2022-11-15T05:08:52;149158.44;;;11.40;100.00
14885;BME280;7534;50.762;7.000;2022-11-15T05:11:18;149150.56;;;11.37;100.00
14885;BME280;7534;50.762;7.000;2022-11-15T05:13:44;149124.41;;;11.27;100.00
14885;BME280;7534;50.762;7.000;2022-11-15T05:16:09;149130.91;;;11.29;100.00
14885;BME280;7534;50.762;7.000;2022-11-15T05:18:35;149137.47;;;11.32;100.00
14885;BME280;7534;50.762;7.000;2022-11-15T05:21:12;149147.94;;;11.36;100.00
14885;BME280;7534;50.762;7.000;2022-11-15T05:23:39;149125.66;;;11.27;100.00
14885;BME280;7534;50.762;7.000;2022-11-15T05:26:07;149129.59;;;11.29;100.00
14885;BME280;7534;50.762;7.000;2022-11-15T05:28:33;149121.78;;;11.26;100.00
14885;BME280;7534;50.762;7.000;2022-11-15T05:31:02;149108.66;;;11.21;100.00
14885;BME280;7534;50.762;7.000;2022-11-15T05:33:27;149099.50;;;11.17;100.00
14885;BME280;7534;50.762;7.000;2022-11-15T05:38:37;149069.38;;;11.05;100.00
14885;BME280;7534;50.762;7.000;2022-11-15T05:41:04;149034.03;;;10.92;100.00
14885;BME280;7534;50.762;7.000;2022-11-15T05:43:34;148980.34;;;10.71;100.00
14885;BME280;7534;50.762;7.000;2022-11-15T05:46:04;148969.91;;;10.67;100.00
14885;BME280;7534;50.762;7.000;2022-11-15T05:48:30;148931.97;;;10.52;100.00
14885;BME280;7534;50.762;7.000;2022-11-15T05:50:56;148876.97;;;10.31;100.00
14885;BME280;7534;50.762;7.000;2022-11-15T05:53:24;148876.97;;;10.31;100.00
14885;BME280;7534;50.762;7.000;2022-11-15T05:55:51;148853.41;;;10.22;100.00
14885;BME280;7534;50.762;7.000;2022-11-15T05:58:19;148846.91;;;10.19;100.00
14885;BME280;7534;50.762;7.000;2022-11-15T06:00:46;148865.22;;;10.26;100.00
14885;BME280;7534;50.762;7.000;2022-11-15T06:03:12;148879.59;;;10.32;100.00
14885;BME280;7534;50.762;7.000;2022-11-15T06:05:40;148904.47;;;10.42;100.00
14885;BME280;7534;50.762;7.000;2022-11-15T06:08:05;148873.09;;;10.29;100.00
14885;BME280;7534;50.762;7.000;2022-11-15T06:10:32;148887.47;;;10.35;100.00
14885;BME280;7534;50.762;7.000;2022-11-15T06:13:03;148907.09;;;10.43;100.00
14885;BME280;7534;50.762;7.000;2022-11-15T06:15:29;148901.84;;;10.41;100.00
14885;BME280;7534;50.762;7.000;2022-11-15T06:17:58;148912.34;;;10.45;100.00
14885;BME280;7534;50.762;7.000;2022-11-15T06:20:29;148914.97;;;10.46;100.00
14885;BME280;7534;50.762;7.000;2022-11-15T06:23:04;148925.41;;;10.50;100.00
14885;BME280;7534;50.762;7.000;2022-11-15T06:25:30;148951.59;;;10.60;100.00
14885;BME280;7534;50.762;7.000;2022-11-15T06:27:59;148964.66;;;10.65;100.00
14885;BME280;7534;50.762;7.000;2022-11-15T06:30:26;148977.78;;;10.70;100.00
14885;BME280;7534;50.762;7.000;2022-11-15T06:33:03;148979.03;;;10.70;100.00
14885;BME280;7534;50.762;7.000;2022-11-15T06:35:32;148981.66;;;10.71;100.00
14885;BME280;7534;50.762;7.000;2022-11-15T06:38:08;148973.84;;;10.68;100.00
14885;BME280;7534;50.762;7.000;2022-11-15T06:40:36;148962.03;;;10.64;100.00
14885;BME280;7534;50.762;7.000;2022-11-15T06:43:03;148972.53;;;10.68;100.00
14885;BME280;7534;50.762;7.000;2022-11-15T06:45:30;148959.41;;;10.63;100.00
14885;BME280;7534;50.762;7.000;2022-11-15T06:47:56;148943.72;;;10.57;100.00
14885;BME280;7534;50.762;7.000;2022-11-15T06:50:22;148935.91;;;10.54;100.00
14885;BME280;7534;50.762;7.000;2022-11-15T06:52:48;148925.41;;;10.50;100.00
14885;BME280;7534;50.762;7.000;2022-11-15T06:55:14;148922.78;;;10.49;100.00
14885;BME280;7534;50.762;7.000;2022-11-15T06:57:50;148907.09;;;10.43;100.00
14885;BME280;7534;50.762;7.000;2022-11-15T07:00:19;148882.22;;;10.33;100.00
14885;BME280;7534;50.762;7.000;2022-11-15T07:02:45;148862.59;;;10.25;100.00
14885;BME280;7534;50.762;7.000;2022-11-15T07:05:12;148848.22;;;10.20;100.00
14885;BME280;7534;50.762;7.000;2022-11-15T07:07:38;148849.53;;;10.20;100.00
14885;BME280;7534;50.762;7.000;2022-11-15T07:10:05;148842.97;;;10.18;100.00
14885;BME280;7534;50.762;7.000;2022-11-15T07:12:31;148867.84;;;10.27;100.00
14885;BME280;7534;50.762;7.000;2022-11-15T07:14:57;148854.72;;;10.22;100.00
14885;BME280;7534;50.762;7.000;2022-11-15T07:17:23;148853.41;;;10.22;100.00
14885;BME280;7534;50.762;7.000;2022-11-15T07:19:48;148842.97;;;10.18;100.00
14885;BME280;7534;50.762;7.000;2022-11-15T07:22:14;148856.03;;;10.23;100.00
14885;BME280;7534;50.762;7.000;2022-11-15T07:24:40;148845.59;;;10.19;100.00
14885;BME280;7534;50.762;7.000;2022-11-15T07:27:06;148859.97;;;10.24;100.00
14885;BME280;7534;50.762;7.000;2022-11-15T07:29:31;148891.41;;;10.37;100.00
14885;BME280;7534;50.762;7.000;2022-11-15T07:31:57;148899.22;;;10.40;100.00
14885;BME280;7534;50.762;7.000;2022-11-15T07:34:23;148943.72;;;10.57;100.00
14885;BME280;7534;50.762;7.000;2022-11-15T07:36:49;148975.16;;;10.69;100.00
14885;BME280;7534;50.762;7.000;2022-11-15T07:39:15;148972.53;;;10.68;100.00
14885;BME280;7534;50.762;7.000;2022-11-15T07:41:40;149014.41;;;10.84;100.00
14885;BME280;7534;50.762;7.000;2022-11-15T07:44:06;149056.31;;;11.00;100.00
14885;BME280;7534;50.762;7.000;2022-11-15T07:46:32;149106.03;;;11.20;100.00
14885;BME280;7534;50.762;7.000;2022-11-15T07:48:58;149149.25;;;11.36;100.00
14885;BME280;7534;50.762;7.000;2022-11-15T07:51:23;149187.25;;;11.51;100.00
14885;BME280;7534;50.762;7.000;2022-11-15T07:53:49;149234.38;;;11.69;100.00
14885;BME280;7534;50.762;7.000;2022-11-15T07:56:15;149284.22;;;11.89;100.00
14885;BME280;7534;50.762;7.000;2022-11-15T07:58:40;149348.44;;;12.13;100.00
14885;BME280;7534;50.762;7.000;2022-11-15T08:01:11;149386.44;;;12.28;98.25
14885;BME280;7534;50.762;7.000;2022-11-15T08:03:37;149434.94;;;12.47;96.37
14885;BME280;7534;50.762;7.000;2022-11-15T08:06:04;149525.38;;;12.82;96.09
14885;BME280;7534;50.762;7.000;2022-11-15T08:08:30;149593.56;;;13.08;93.87
14885;BME280;7534;50.762;7.000;2022-11-15T08:10:58;149614.63;;;13.16;91.00
14885;BME280;7534;50.762;7.000;2022-11-15T08:13:23;149655.28;;;13.32;90.14
14885;BME280;7534;50.762;7.000;2022-11-15T08:15:50;149689.41;;;13.45;88.94
14885;BME280;7534;50.762;7.000;2022-11-15T08:18:16;149745.81;;;13.67;88.58
14885;BME280;7534;50.762;7.000;2022-11-15T08:20:42;149811.44;;;13.92;87.03
14885;BME280;7534;50.762;7.000;2022-11-15T08:23:11;149870.50;;;14.15;86.01
14885;BME280;7534;50.762;7.000;2022-11-15T08:25:38;149916.44;;;14.33;84.57
14885;BME280;7534;50.762;7.000;2022-11-15T08:28:07;149961.16;;;14.50;82.93
14885;BME280;7534;50.762;7.000;2022-11-15T08:30:40;149982.16;;;14.58;81.90
14885;BME280;7534;50.762;7.000;2022-11-15T08:33:12;150007.06;;;14.68;80.63
14885;BME280;7534;50.762;7.000;2022-11-15T08:35:40;150037.31;;;14.79;79.69
14885;BME280;7534;50.762;7.000;2022-11-15T08:38:06;150064.91;;;14.90;78.20
14885;BME280;7534;50.762;7.000;2022-11-15T08:40:32;150084.59;;;14.98;77.23
14885;BME280;7534;50.762;7.000;2022-11-15T08:42:57;150135.81;;;15.17;77.13
14885;BME280;7534;50.762;7.000;2022-11-15T08:45:24;150243.63;;;15.59;75.33
14885;BME280;7534;50.762;7.000;2022-11-15T08:47:50;150340.94;;;15.96;73.27
14885;BME280;7534;50.762;7.000;2022-11-15T08:50:16;150456.63;;;16.41;72.01
14885;BME280;7534;50.762;7.000;2022-11-15T08:52:41;150468.47;;;16.46;69.26
14885;BME280;7534;50.762;7.000;2022-11-15T08:55:08;150455.28;;;16.40;69.48
14885;BME280;7534;50.762;7.000;2022-11-15T08:57:33;150456.63;;;16.41;69.21
14885;BME280;7534;50.762;7.000;2022-11-15T08:59:59;150511.88;;;16.62;67.78
14885;BME280;7534;50.762;7.000;2022-11-15T09:02:25;150383.00;;;16.13;65.86
14885;BME280;7534;50.762;7.000;2022-11-15T09:04:51;150359.31;;;16.03;66.62
14885;BME280;7534;50.762;7.000;2022-11-15T09:07:16;150480.28;;;16.50;65.49
14885;BME280;7534;50.762;7.000;2022-11-15T09:09:42;150444.81;;;16.36;63.88
14885;BME280;7534;50.762;7.000;2022-11-15T09:12:08;150425.06;;;16.29;64.55
14885;BME280;7534;50.762;7.000;2022-11-15T09:14:34;150493.44;;;16.55;63.53
14885;BME280;7534;50.762;7.000;2022-11-15T09:17:00;150494.75;;;16.56;63.29
14885;BME280;7534;50.762;7.000;2022-11-15T09:19:26;150530.34;;;16.69;62.61
14885;BME280;7534;50.762;7.000;2022-11-15T09:21:52;150551.41;;;16.77;60.77
14885;BME280;7534;50.762;7.000;2022-11-15T09:24:18;150661.91;;;17.20;60.06
14885;BME280;7534;50.762;7.000;2022-11-15T09:26:44;150486.88;;;16.53;61.29
14885;BME280;7534;50.762;7.000;2022-11-15T09:29:10;150386.91;;;16.14;61.08
14885;BME280;7534;50.762;7.000;2022-11-15T09:31:36;150421.13;;;16.27;61.81
14885;BME280;7534;50.762;7.000;2022-11-15T09:34:02;150464.53;;;16.44;60.62
14885;BME280;7534;50.762;7.000;2022-11-15T09:36:28;150455.28;;;16.40;60.98
14885;BME280;7534;50.762;7.000;2022-11-15T09:38:53;150384.31;;;16.13;61.13
14885;BME280;7534;50.762;7.000;2022-11-15T09:50:14;150131.91;;;15.16;62.77
14885;BME280;7534;50.762;7.000;2022-11-15T09:52:44;150087.25;;;14.99;63.10
14885;BME280;7534;50.762;7.000;2022-11-15T09:55:13;150068.84;;;14.92;63.12
14885;BME280;7534;50.762;7.000;2022-11-15T09:58:04;150043.88;;;14.82;62.49
14885;BME280;7534;50.762;7.000;2022-11-15T10:00:38;150045.19;;;14.82;62.73
14885;BME280;7534;50.762;7.000;2022-11-15T10:03:20;150063.59;;;14.89;61.99
14885;BME280;7534;50.762;7.000;2022-11-15T10:05:52;150068.84;;;14.92;61.22
14885;BME280;7534;50.762;7.000;2022-11-15T10:08:56;150084.59;;;14.98;60.68
14885;BME280;7534;50.762;7.000;2022-11-15T10:11:30;150131.91;;;15.16;60.63
14885;BME280;7534;50.762;7.000;2022-11-15T10:14:02;150147.66;;;15.22;59.11
14885;BME280;7534;50.762;7.000;2022-11-15T10:22:29;150130.59;;;15.15;56.68
14885;BME280;7534;50.762;7.000;2022-11-15T10:25:19;150087.25;;;14.99;55.35
14885;BME280;7534;50.762;7.000;2022-11-15T10:28:00;150087.25;;;14.99;55.79
14885;BME280;7534;50.762;7.000;2022-11-15T10:30:40;150085.91;;;14.98;55.09
14885;BME280;7534;50.762;7.000;2022-11-15T10:38:53;150102.97;;;15.05;55.53
14885;BME280;7534;50.762;7.000;2022-11-15T10:41:30;150197.56;;;15.41;53.97
14885;BME280;7534;50.762;7.000;2022-11-15T10:44:28;150193.66;;;15.40;53.68
14885;BME280;7534;50.762;7.000;2022-11-15T10:49:25;150206.78;;;15.45;54.95
14885;BME280;7534;50.762;7.000;2022-11-15T10:51:55;150208.09;;;15.45;53.91
14885;BME280;7534;50.762;7.000;2022-11-15T10:54:40;150239.66;;;15.57;52.81
14885;BME280;7534;50.762;7.000;2022-11-15T10:57:17;150210.75;;;15.46;52.75
14885;BME280;7534;50.762;7.000;2022-11-15T11:00:26;150200.19;;;15.42;53.09
14885;BME280;7534;50.762;7.000;2022-11-15T11:05:39;150255.47;;;15.63;52.69
14885;BME280;7534;50.762;7.000;2022-11-15T11:08:23;150269.91;;;15.69;52.74
14885;BME280;7534;50.762;7.000;2022-11-15T11:10:58;150265.97;;;15.68;53.70
14885;BME280;7534;50.762;7.000;2022-11-15T11:13:28;150197.56;;;15.41;54.11
14885;BME280;7534;50.762;7.000;2022-11-15T11:18:49;150095.09;;;15.02;56.46
14885;BME280;7534;50.762;7.000;2022-11-15T11:21:54;150051.72;;;14.85;57.58
14885;BME280;7534;50.762;7.000;2022-11-15T11:28:05;150039.94;;;14.80;58.73
14885;BME280;7534;50.762;7.000;2022-11-15T11:31:24;150039.94;;;14.80;59.31
14885;BME280;7534;50.762;7.000;2022-11-15T11:37:14;150210.75;;;15.46;58.05
14885;BME280;7534;50.762;7.000;2022-11-15T11:48:44;150325.09;;;15.90;56.64
14885;BME280;7534;50.762;7.000;2022-11-15T11:51:24;150308.03;;;15.84;56.46
14885;BME280;7534;50.762;7.000;2022-11-15T11:54:20;150279.16;;;15.73;55.85
14885;BME280;7534;50.762;7.000;2022-11-15T11:56:49;150251.53;;;15.62;56.39
14885;BME280;7534;50.762;7.000;2022-11-15T11:59:43;150284.38;;;15.75;56.52
14885;BME280;7534;50.762;7.000;2022-11-15T12:02:47;150339.59;;;15.96;55.52
14885;BME280;7534;50.762;7.000;2022-11-15T12:05:32;150402.72;;;16.20;55.17
14885;BME280;7534;50.762;7.000;2022-11-15T12:10:57;150426.41;;;16.29;54.25
14885;BME280;7534;50.762;7.000;2022-11-15T12:13:29;150477.66;;;16.49;53.77
14885;BME280;7534;50.762;7.000;2022-11-15T12:16:28;150463.19;;;16.44;54.31
14885;BME280;7534;50.762;7.000;2022-11-15T12:19:00;150492.13;;;16.55;54.13
14885;BME280;7534;50.762;7.000;2022-11-15T12:21:39;150486.88;;;16.53;54.46
14885;BME280;7534;50.762;7.000;2022-11-15T12:24:40;150540.84;;;16.73;54.27
14885;BME280;7534;50.762;7.000;2022-11-15T12:30:09;150571.13;;;16.85;53.90
14885;BME280;7534;50.762;7.000;2022-11-15T12:32:50;150563.22;;;16.82;53.96
14885;BME280;7534;50.762;7.000;2022-11-15T12:35:42;150568.50;;;16.84;53.90
14885;BME280;7534;50.762;7.000;2022-11-15T12:38:12;150569.81;;;16.85;54.06
14885;BME280;7534;50.762;7.000;2022-11-15T12:41:16;150546.13;;;16.75;54.42
14885;BME280;7534;50.762;7.000;2022-11-15T12:43:44;150617.13;;;17.03;53.58
14885;BME280;7534;50.762;7.000;2022-11-15T13:02:43;150515.84;;;16.64;55.34
14885;BME280;7534;50.762;7.000;2022-11-15T13:17:48;150379.03;;;16.11;60.27
14885;BME280;7534;50.762;7.000;2022-11-15T13:22:45;150310.66;;;15.85;62.56
14885;BME280;7534;50.762;7.000;2022-11-15T13:30:58;150218.59;;;15.49;64.99
14885;BME280;7534;50.762;7.000;2022-11-15T13:33:35;150250.22;;;15.61;65.13
14885;BME280;7534;50.762;7.000;2022-11-15T13:36:14;150258.13;;;15.64;65.17
14885;BME280;7534;50.762;7.000;2022-11-15T13:38:42;150265.97;;;15.68;65.42
14885;BME280;7534;50.762;7.000;2022-11-15T13:41:27;150265.97;;;15.68;65.09
14885;BME280;7534;50.762;7.000;2022-11-15T13:43:56;150263.34;;;15.67;65.29
14885;BME280;7534;50.762;7.000;2022-11-15T13:46:33;150237.09;;;15.56;65.80
14885;BME280;7534;50.762;7.000;2022-11-15T13:49:09;150216.00;;;15.48;66.12
14885;BME280;7534;50.762;7.000;2022-11-15T13:51:52;150237.09;;;15.56;66.00
14885;BME280;7534;50.762;7.000;2022-11-15T13:54:52;150250.22;;;15.61;65.79
14885;BME280;7534;50.762;7.000;2022-11-15T13:57:25;150248.88;;;15.61;65.59
14885;BME280;7534;50.762;7.000;2022-11-15T14:00:06;150239.66;;;15.57;65.95
14885;BME280;7534;50.762;7.000;2022-11-15T14:02:35;150243.63;;;15.59;66.52
14885;BME280;7534;50.762;7.000;2022-11-15T14:05:16;150265.97;;;15.68;66.28
14885;BME280;7534;50.762;7.000;2022-11-15T14:07:55;150317.25;;;15.87;65.66
14885;BME280;7534;50.762;7.000;2022-11-15T14:10:36;150333.00;;;15.93;65.45
14885;BME280;7534;50.762;7.000;2022-11-15T14:13:09;150322.47;;;15.89;65.02
14885;BME280;7534;50.762;7.000;2022-11-15T14:15:38;150302.75;;;15.82;65.41
14885;BME280;7534;50.762;7.000;2022-11-15T14:18:05;150308.03;;;15.84;65.43
14885;BME280;7534;50.762;7.000;2022-11-15T14:20:38;150327.75;;;15.91;65.16
14885;BME280;7534;50.762;7.000;2022-11-15T14:23:26;150323.78;;;15.90;65.26
14885;BME280;7534;50.762;7.000;2022-11-15T14:25:55;150306.72;;;15.83;65.48
14885;BME280;7534;50.762;7.000;2022-11-15T14:30:52;150288.31;;;15.76;65.92
14885;BME280;7534;50.762;7.000;2022-11-15T14:33:30;150277.81;;;15.72;66.37
14885;BME280;7534;50.762;7.000;2022-11-15T14:38:36;150202.84;;;15.43;67.54
14885;BME280;7534;50.762;7.000;2022-11-15T14:41:02;150181.81;;;15.35;67.98
14885;BME280;7534;50.762;7.000;2022-11-15T14:43:28;150170.00;;;15.31;68.17
14885;BME280;7534;50.762;7.000;2022-11-15T14:45:54;150171.31;;;15.31;68.69
14885;BME280;7534;50.762;7.000;2022-11-15T14:48:20;150158.16;;;15.26;68.38
14885;BME280;7534;50.762;7.000;2022-11-15T14:50:45;150160.78;;;15.27;68.74
14885;BME280;7534;50.762;7.000;2022-11-15T14:53:16;150222.53;;;15.51;67.93
14885;BME280;7534;50.762;7.000;2022-11-15T14:55:43;150192.34;;;15.39;68.19
14885;BME280;7534;50.762;7.000;2022-11-15T14:58:10;150154.19;;;15.24;68.85
14885;BME280;7534;50.762;7.000;2022-11-15T15:00:39;150134.50;;;15.17;69.55
14885;BME280;7534;50.762;7.000;2022-11-15T15:03:06;150105.63;;;15.06;69.99
14885;BME280;7534;50.762;7.000;2022-11-15T15:05:43;150081.97;;;14.97;70.62
14885;BME280;7534;50.762;7.000;2022-11-15T15:08:10;150060.94;;;14.88;70.89
14885;BME280;7534;50.762;7.000;2022-11-15T15:10:43;150066.22;;;14.91;71.19
14885;BME280;7534;50.762;7.000;2022-11-15T15:13:23;150049.09;;;14.84;71.71